sensor_id;sensor_type;location;lat;lon;timestamp;pressure;altitude;pressure_sealevel;temperature;humidity
22261;BME280;11299;43.202;27.920;2022-09-30T00:01:29;100789.09;;;18.26;100.00
22261;BME280;11299;43.202;27.920;2022-09-30T00:03:56;100776.88;;;18.22;100.00
22261;BME280;11299;43.202;27.920;2022-09-30T00:06:23;100757.34;;;18.17;100.00
22261;BME280;11299;43.202;27.920;2022-09-30T00:08:49;100663.50;;;17.69;100.00
22261;BME280;11299;43.202;27.920;2022-09-30T00:11:18;100632.28;;;17.62;100.00
22261;BME280;11299;43.202;27.920;2022-09-30T00:13:46;100721.03;;;18.12;100.00
22261;BME280;11299;43.202;27.920;2022-09-30T00:16:13;100617.94;;;17.50;100.00
22261;BME280;11299;43.202;27.920;2022-09-30T00:18:40;100790.34;;;18.20;100.00
22261;BME280;11299;43.202;27.920;2022-09-30T00:21:06;100752.13;;;18.11;100.00
22261;BME280;11299;43.202;27.920;2022-09-30T00:23:33;100768.63;;;18.12;100.00
22261;BME280;11299;43.202;27.920;2022-09-30T00:26:03;100727.13;;;17.58;100.00
22261;BME280;11299;43.202;27.920;2022-09-30T00:28:30;100766.84;;;17.79;100.00
22261;BME280;11299;43.202;27.920;2022-09-30T00:31:00;100788.50;;;17.92;100.00
22261;BME280;11299;43.202;27.920;2022-09-30T00:33:26;100779.72;;;17.80;100.00
22261;BME280;11299;43.202;27.920;2022-09-30T00:35:52;100796.03;;;17.73;100.00
22261;BME280;11299;43.202;27.920;2022-09-30T00:38:17;100778.41;;;17.72;100.00
22261;BME280;11299;43.202;27.920;2022-09-30T00:40:43;100789.31;;;17.50;100.00
22261;BME280;11299;43.202;27.920;2022-09-30T00:43:13;100785.81;;;17.63;100.00
22261;BME280;11299;43.202;27.920;2022-09-30T00:45:50;100793.91;;;17.65;100.00
22261;BME280;11299;43.202;27.920;2022-09-30T00:48:27;100865.53;;;17.61;100.00
22261;BME280;11299;43.202;27.920;2022-09-30T00:50:55;100795.00;;;17.64;100.00
22261;BME280;11299;43.202;27.920;2022-09-30T00:53:51;100793.91;;;17.65;100.00
22261;BME280;11299;43.202;27.920;2022-09-30T00:56:25;100783.44;;;17.52;100.00
22261;BME280;11299;43.202;27.920;2022-09-30T00:59:12;100788.88;;;17.62;100.00
22261;BME280;11299;43.202;27.920;2022-09-30T01:01:40;100790.09;;;17.56;100.00
22261;BME280;11299;43.202;27.920;2022-09-30T01:04:18;100812.06;;;17.39;100.00
22261;BME280;11299;43.202;27.920;2022-09-30T01:06:46;100817.00;;;17.52;100.00
22261;BME280;11299;43.202;27.920;2022-09-30T01:09:12;100759.50;;;17.41;100.00
22261;BME280;11299;43.202;27.920;2022-09-30T01:11:37;100784.50;;;17.56;100.00
22261;BME280;11299;43.202;27.920;2022-09-30T01:14:15;100771.75;;;17.45;100.00
22261;BME280;11299;43.202;27.920;2022-09-30T01:30:15;100765.66;;;17.38;100.00
22261;BME280;11299;43.202;27.920;2022-09-30T01:38:42;100789.03;;;17.52;100.00
22261;BME280;11299;43.202;27.920;2022-09-30T01:41:04;100825.38;;;17.47;100.00
22261;BME280;11299;43.202;27.920;2022-09-30T01:43:47;100799.72;;;17.45;100.00
22261;BME280;11299;43.202;27.920;2022-09-30T01:48:55;100770.69;;;17.41;100.00
22261;BME280;11299;43.202;27.920;2022-09-30T01:57:10;100807.59;;;17.38;100.00
22261;BME280;11299;43.202;27.920;2022-09-30T01:59:49;100788.75;;;17.25;100.00
22261;BME280;11299;43.202;27.920;2022-09-30T02:02:27;100805.97;;;17.32;100.00
22261;BME280;11299;43.202;27.920;2022-09-30T02:05:23;100811.00;;;17.35;100.00
22261;BME280;11299;43.202;27.920;2022-09-30T02:07:57;100771.28;;;17.09;100.00
22261;BME280;11299;43.202;27.920;2022-09-30T02:10:47;100829.47;;;17.31;100.00
22261;BME280;11299;43.202;27.920;2022-09-30T02:13:39;100822.75;;;17.32;100.00
22261;BME280;11299;43.202;27.920;2022-09-30T02:16:06;100825.63;;;17.27;100.00
22261;BME280;11299;43.202;27.920;2022-09-30T02:18:47;100715.19;;;16.53;100.00
22261;BME280;11299;43.202;27.920;2022-09-30T02:21:19;100681.72;;;16.43;100.00
22261;BME280;11299;43.202;27.920;2022-09-30T02:23:48;100824.53;;;17.23;100.00
22261;BME280;11299;43.202;27.920;2022-09-30T02:26:24;100832.91;;;17.23;100.00
22261;BME280;11299;43.202;27.920;2022-09-30T02:28:57;100838.75;;;17.26;100.00
22261;BME280;11299;43.202;27.920;2022-09-30T02:31:31;100846.31;;;17.26;100.00
22261;BME280;11299;43.202;27.920;2022-09-30T02:36:47;100802.25;;;16.89;100.00
22261;BME280;11299;43.202;27.920;2022-09-30T02:41:50;100847.34;;;17.06;100.00
22261;BME280;11299;43.202;27.920;2022-09-30T02:44:17;100859.31;;;17.12;100.00
22261;BME280;11299;43.202;27.920;2022-09-30T02:47:00;100829.56;;;16.92;100.00
22261;BME280;11299;43.202;27.920;2022-09-30T02:49:46;100851.53;;;17.09;100.00
22261;BME280;11299;43.202;27.920;2022-09-30T02:55:28;100867.19;;;17.05;100.00
22261;BME280;11299;43.202;27.920;2022-09-30T02:58:33;100861.09;;;16.98;100.00
22261;BME280;11299;43.202;27.920;2022-09-30T03:00:52;100703.22;;;16.09;100.00
22261;BME280;11299;43.202;27.920;2022-09-30T03:03:27;100628.88;;;15.61;100.00
22261;BME280;11299;43.202;27.920;2022-09-30T03:05:53;100839.34;;;16.94;100.00
22261;BME280;11299;43.202;27.920;2022-09-30T03:08:19;100836.25;;;16.96;100.00
22261;BME280;11299;43.202;27.920;2022-09-30T03:10:46;100848.03;;;16.93;100.00
22261;BME280;11299;43.202;27.920;2022-09-30T03:24:12;100875.19;;;16.82;100.00
22261;BME280;11299;43.202;27.920;2022-09-30T03:26:54;100861.34;;;16.67;100.00
22261;BME280;11299;43.202;27.920;2022-09-30T03:41:17;100909.34;;;16.69;100.00
22261;BME280;11299;43.202;27.920;2022-09-30T03:46:14;100843.88;;;16.47;100.00
22261;BME280;11299;43.202;27.920;2022-09-30T03:48:43;100871.50;;;16.53;100.00
22261;BME280;11299;43.202;27.920;2022-09-30T03:51:10;100892.69;;;16.59;100.00
22261;BME280;11299;43.202;27.920;2022-09-30T03:53:39;100881.28;;;16.56;100.00
22261;BME280;11299;43.202;27.920;2022-09-30T03:56:05;100900.03;;;16.40;100.00
22261;BME280;11299;43.202;27.920;2022-09-30T03:58:30;100852.34;;;16.32;100.00
22261;BME280;11299;43.202;27.920;2022-09-30T04:00:56;100889.34;;;16.57;100.00
22261;BME280;11299;43.202;27.920;2022-09-30T04:03:22;100906.50;;;16.31;100.00
22261;BME280;11299;43.202;27.920;2022-09-30T04:05:48;100769.25;;;15.80;100.00
22261;BME280;11299;43.202;27.920;2022-09-30T04:08:14;100879.38;;;16.41;100.00
22261;BME280;11299;43.202;27.920;2022-09-30T04:10:41;100804.56;;;15.99;100.00
22261;BME280;11299;43.202;27.920;2022-09-30T04:13:07;100900.03;;;16.40;100.00
22261;BME280;11299;43.202;27.920;2022-09-30T04:15:34;100886.63;;;16.42;100.00
22261;BME280;11299;43.202;27.920;2022-09-30T04:18:00;100891.63;;;16.45;100.00
22261;BME280;11299;43.202;27.920;2022-09-30T04:20:26;100876.09;;;16.29;100.00
22261;BME280;11299;43.202;27.920;2022-09-30T04:22:52;100933.84;;;16.39;100.00
22261;BME280;11299;43.202;27.920;2022-09-30T04:25:17;100794.28;;;15.90;100.00
22261;BME280;11299;43.202;27.920;2022-09-30T04:27:43;100893.88;;;16.48;100.00
22261;BME280;11299;43.202;27.920;2022-09-30T04:30:08;100914.78;;;16.56;100.00
22261;BME280;11299;43.202;27.920;2022-09-30T04:32:34;100922.63;;;16.54;100.00
22261;BME280;11299;43.202;27.920;2022-09-30T04:34:59;100782.03;;;15.86;100.00
22261;BME280;11299;43.202;27.920;2022-09-30T04:37:25;100929.09;;;16.88;100.00
22261;BME280;11299;43.202;27.920;2022-09-30T04:39:50;100939.06;;;16.94;100.00
22261;BME280;11299;43.202;27.920;2022-09-30T04:42:16;100937.34;;;17.03;100.00
22261;BME280;11299;43.202;27.920;2022-09-30T04:44:42;100950.97;;;17.10;100.00
22261;BME280;11299;43.202;27.920;2022-09-30T04:47:08;100969.69;;;17.09;100.00
22261;BME280;11299;43.202;27.920;2022-09-30T04:49:33;100929.84;;;16.99;100.00
22261;BME280;11299;43.202;27.920;2022-09-30T04:51:59;100969.97;;;17.13;100.00
22261;BME280;11299;43.202;27.920;2022-09-30T04:54:24;100782.38;;;16.23;100.00
22261;BME280;11299;43.202;27.920;2022-09-30T04:56:50;100887.56;;;16.76;100.00
22261;BME280;11299;43.202;27.920;2022-09-30T04:59:15;100834.81;;;16.70;100.00
22261;BME280;11299;43.202;27.920;2022-09-30T05:01:41;100963.28;;;17.42;100.00
22261;BME280;11299;43.202;27.920;2022-09-30T05:04:08;100938.75;;;17.34;100.00
22261;BME280;11299;43.202;27.920;2022-09-30T05:06:36;100800.91;;;16.04;100.00
22261;BME280;11299;43.202;27.920;2022-09-30T05:09:04;100961.63;;;17.70;100.00
22261;BME280;11299;43.202;27.920;2022-09-30T05:11:29;100954.69;;;17.91;100.00
22261;BME280;11299;43.202;27.920;2022-09-30T05:13:54;100954.53;;;18.06;100.00
22261;BME280;11299;43.202;27.920;2022-09-30T05:16:20;100994.25;;;18.08;100.00
22261;BME280;11299;43.202;27.920;2022-09-30T05:18:46;100956.03;;;18.22;100.00
22261;BME280;11299;43.202;27.920;2022-09-30T05:21:14;100944.22;;;18.25;100.00
22261;BME280;11299;43.202;27.920;2022-09-30T05:23:39;100927.22;;;18.40;100.00
22261;BME280;11299;43.202;27.920;2022-09-30T05:26:05;100928.78;;;18.51;100.00
22261;BME280;11299;43.202;27.920;2022-09-30T05:28:31;100943.31;;;18.72;100.00
22261;BME280;11299;43.202;27.920;2022-09-30T05:31:01;100847.13;;;18.21;100.00
22261;BME280;11299;43.202;27.920;2022-09-30T05:33:28;100942.63;;;18.99;100.00
22261;BME280;11299;43.202;27.920;2022-09-30T05:35:57;100960.63;;;19.30;100.00
22261;BME280;11299;43.202;27.920;2022-09-30T05:38:23;100774.38;;;18.39;100.00
22261;BME280;11299;43.202;27.920;2022-09-30T05:40:48;100853.56;;;18.96;100.00
22261;BME280;11299;43.202;27.920;2022-09-30T05:43:13;100890.41;;;19.21;100.00
22261;BME280;11299;43.202;27.920;2022-09-30T05:45:39;100933.44;;;19.76;100.00
22261;BME280;11299;43.202;27.920;2022-09-30T05:48:05;100901.97;;;19.79;100.00
22261;BME280;11299;43.202;27.920;2022-09-30T05:50:32;100934.66;;;20.02;100.00
22261;BME280;11299;43.202;27.920;2022-09-30T05:52:57;100940.88;;;19.99;100.00
22261;BME280;11299;43.202;27.920;2022-09-30T05:55:24;100923.38;;;19.75;100.00
22261;BME280;11299;43.202;27.920;2022-09-30T05:57:50;100816.75;;;19.16;100.00
22261;BME280;11299;43.202;27.920;2022-09-30T06:00:17;100966.25;;;19.94;100.00
22261;BME280;11299;43.202;27.920;2022-09-30T06:02:43;100960.00;;;19.97;100.00
22261;BME280;11299;43.202;27.920;2022-09-30T06:05:10;100847.00;;;19.19;100.00
22261;BME280;11299;43.202;27.920;2022-09-30T06:07:37;100845.84;;;19.20;100.00
22261;BME280;11299;43.202;27.920;2022-09-30T06:10:04;100862.44;;;19.16;100.00
22261;BME280;11299;43.202;27.920;2022-09-30T06:12:29;100977.22;;;19.77;100.00
22261;BME280;11299;43.202;27.920;2022-09-30T06:14:55;100991.84;;;19.74;100.00
22261;BME280;11299;43.202;27.920;2022-09-30T06:17:21;100963.75;;;19.93;100.00
22261;BME280;11299;43.202;27.920;2022-09-30T06:19:47;100927.47;;;19.96;100.00
22261;BME280;11299;43.202;27.920;2022-09-30T06:22:17;100977.31;;;20.31;100.00
22261;BME280;11299;43.202;27.920;2022-09-30T06:24:44;100983.13;;;20.21;100.00
22261;BME280;11299;43.202;27.920;2022-09-30T06:27:10;100973.38;;;20.32;100.00
22261;BME280;11299;43.202;27.920;2022-09-30T06:29:36;100952.63;;;20.15;100.00
22261;BME280;11299;43.202;27.920;2022-09-30T06:32:02;101023.19;;;20.27;100.00
22261;BME280;11299;43.202;27.920;2022-09-30T06:34:27;101002.66;;;20.53;100.00
22261;BME280;11299;43.202;27.920;2022-09-30T06:36:53;100904.78;;;20.06;100.00
22261;BME280;11299;43.202;27.920;2022-09-30T06:39:19;101000.38;;;20.69;100.00
22261;BME280;11299;43.202;27.920;2022-09-30T06:41:45;100921.13;;;20.31;100.00
22261;BME280;11299;43.202;27.920;2022-09-30T06:44:11;100982.47;;;20.65;100.00
22261;BME280;11299;43.202;27.920;2022-09-30T06:46:37;101012.97;;;20.58;100.00
22261;BME280;11299;43.202;27.920;2022-09-30T06:49:03;101003.16;;;20.83;100.00
22261;BME280;11299;43.202;27.920;2022-09-30T06:51:30;101014.06;;;20.98;100.00
22261;BME280;11299;43.202;27.920;2022-09-30T06:54:01;100998.06;;;20.85;100.00
22261;BME280;11299;43.202;27.920;2022-09-30T06:56:27;101032.03;;;21.24;100.00
22261;BME280;11299;43.202;27.920;2022-09-30T06:58:52;100914.22;;;20.65;100.00
22261;BME280;11299;43.202;27.920;2022-09-30T07:01:18;101038.19;;;21.48;100.00
22261;BME280;11299;43.202;27.920;2022-09-30T07:03:45;101027.47;;;21.72;100.00
22261;BME280;11299;43.202;27.920;2022-09-30T07:06:13;101056.16;;;21.96;100.00
22261;BME280;11299;43.202;27.920;2022-09-30T07:08:39;101039.38;;;22.22;100.00
22261;BME280;11299;43.202;27.920;2022-09-30T07:11:10;101048.59;;;22.44;100.00
22261;BME280;11299;43.202;27.920;2022-09-30T07:13:39;101043.69;;;22.50;100.00
22261;BME280;11299;43.202;27.920;2022-09-30T07:16:06;101044.13;;;22.74;100.00
22261;BME280;11299;43.202;27.920;2022-09-30T07:18:32;101018.47;;;22.84;100.00
22261;BME280;11299;43.202;27.920;2022-09-30T07:20:58;101087.75;;;23.33;100.00
22261;BME280;11299;43.202;27.920;2022-09-30T07:23:24;100978.34;;;23.30;100.00
22261;BME280;11299;43.202;27.920;2022-09-30T07:25:56;101035.91;;;24.06;100.00
22261;BME280;11299;43.202;27.920;2022-09-30T07:28:28;100720.75;;;22.23;100.00
22261;BME280;11299;43.202;27.920;2022-09-30T07:30:59;101032.19;;;24.69;100.00
22261;BME280;11299;43.202;27.920;2022-09-30T07:33:26;101038.44;;;25.12;100.00
22261;BME280;11299;43.202;27.920;2022-09-30T07:35:58;100999.41;;;25.47;100.00
22261;BME280;11299;43.202;27.920;2022-09-30T07:38:27;101029.00;;;25.70;100.00
22261;BME280;11299;43.202;27.920;2022-09-30T07:41:06;100974.53;;;25.52;100.00
22261;BME280;11299;43.202;27.920;2022-09-30T07:43:34;100994.13;;;25.57;100.00
22261;BME280;11299;43.202;27.920;2022-09-30T07:46:08;101014.44;;;25.59;100.00
22261;BME280;11299;43.202;27.920;2022-09-30T07:48:35;101021.50;;;25.86;100.00
22261;BME280;11299;43.202;27.920;2022-09-30T07:53:47;100977.13;;;25.57;100.00
22261;BME280;11299;43.202;27.920;2022-09-30T07:56:14;100973.81;;;25.14;100.00
22261;BME280;11299;43.202;27.920;2022-09-30T07:58:40;100982.28;;;25.43;100.00
22261;BME280;11299;43.202;27.920;2022-09-30T08:01:06;100894.81;;;24.88;100.00
22261;BME280;11299;43.202;27.920;2022-09-30T08:03:34;100889.56;;;24.99;100.00
22261;BME280;11299;43.202;27.920;2022-09-30T08:06:04;101030.53;;;26.00;100.00
22261;BME280;11299;43.202;27.920;2022-09-30T08:08:30;101030.94;;;26.11;100.00
22261;BME280;11299;43.202;27.920;2022-09-30T08:10:59;101032.25;;;26.25;100.00
22261;BME280;11299;43.202;27.920;2022-09-30T08:13:25;101020.56;;;26.15;100.00
22261;BME280;11299;43.202;27.920;2022-09-30T08:15:50;101024.97;;;26.36;100.00
22261;BME280;11299;43.202;27.920;2022-09-30T08:18:16;100997.22;;;26.42;100.00
22261;BME280;11299;43.202;27.920;2022-09-30T08:20:41;101030.31;;;26.62;100.00
22261;BME280;11299;43.202;27.920;2022-09-30T08:23:07;101014.22;;;26.42;100.00
22261;BME280;11299;43.202;27.920;2022-09-30T08:25:32;101027.00;;;26.60;100.00
22261;BME280;11299;43.202;27.920;2022-09-30T08:27:58;101001.00;;;26.46;100.00
22261;BME280;11299;43.202;27.920;2022-09-30T08:30:23;101024.03;;;26.56;100.00
22261;BME280;11299;43.202;27.920;2022-09-30T08:32:49;101061.03;;;26.60;100.00
22261;BME280;11299;43.202;27.920;2022-09-30T08:35:15;101053.97;;;26.90;100.00
22261;BME280;11299;43.202;27.920;2022-09-30T08:37:40;101049.25;;;27.06;100.00
22261;BME280;11299;43.202;27.920;2022-09-30T08:40:31;100970.25;;;26.12;100.00
22261;BME280;11299;43.202;27.920;2022-09-30T08:48:28;101056.53;;;26.47;100.00
22261;BME280;11299;43.202;27.920;2022-09-30T08:53:42;101047.38;;;26.17;100.00
22261;BME280;11299;43.202;27.920;2022-09-30T08:56:22;101067.38;;;26.33;100.00
22261;BME280;11299;43.202;27.920;2022-09-30T08:58:51;101076.16;;;26.52;100.00
22261;BME280;11299;43.202;27.920;2022-09-30T09:03:49;100952.28;;;26.08;100.00
22261;BME280;11299;43.202;27.920;2022-09-30T09:11:51;101074.78;;;27.30;100.00
22261;BME280;11299;43.202;27.920;2022-09-30T09:20:19;101087.59;;;26.76;100.00
22261;BME280;11299;43.202;27.920;2022-09-30T09:22:47;101086.03;;;26.78;100.00
22261;BME280;11299;43.202;27.920;2022-09-30T09:25:18;100945.19;;;26.26;100.00
22261;BME280;11299;43.202;27.920;2022-09-30T09:27:56;101092.41;;;26.99;100.00
22261;BME280;11299;43.202;27.920;2022-09-30T09:30:25;101066.72;;;26.60;100.00
22261;BME280;11299;43.202;27.920;2022-09-30T09:32:53;101067.66;;;26.64;100.00
22261;BME280;11299;43.202;27.920;2022-09-30T09:43:57;101087.56;;;26.19;100.00
22261;BME280;11299;43.202;27.920;2022-09-30T09:49:28;101077.31;;;26.39;100.00
22261;BME280;11299;43.202;27.920;2022-09-30T09:54:52;101084.66;;;26.40;100.00
22261;BME280;11299;43.202;27.920;2022-09-30T09:57:23;101108.03;;;26.37;100.00
22261;BME280;11299;43.202;27.920;2022-09-30T10:00:02;101001.06;;;26.13;100.00
22261;BME280;11299;43.202;27.920;2022-09-30T10:05:37;101081.16;;;27.51;100.00
22261;BME280;11299;43.202;27.920;2022-09-30T10:08:09;101084.13;;;27.19;100.00
22261;BME280;11299;43.202;27.920;2022-09-30T10:10:58;101072.06;;;27.34;100.00
22261;BME280;11299;43.202;27.920;2022-09-30T10:15:59;101082.38;;;27.02;100.00
22261;BME280;11299;43.202;27.920;2022-09-30T10:18:28;101074.81;;;27.06;100.00
22261;BME280;11299;43.202;27.920;2022-09-30T10:23:44;101065.22;;;27.74;100.00
22261;BME280;11299;43.202;27.920;2022-09-30T10:28:49;101061.38;;;27.43;100.00
22261;BME280;11299;43.202;27.920;2022-09-30T10:31:27;101077.25;;;27.83;100.00
22261;BME280;11299;43.202;27.920;2022-09-30T10:36:44;101075.19;;;27.68;100.00
22261;BME280;11299;43.202;27.920;2022-09-30T10:39:24;101094.06;;;27.49;100.00
22261;BME280;11299;43.202;27.920;2022-09-30T10:44:57;101040.50;;;27.90;100.00
22261;BME280;11299;43.202;27.920;2022-09-30T10:47:26;100946.22;;;27.45;100.00
22261;BME280;11299;43.202;27.920;2022-09-30T10:50:02;101071.56;;;27.83;100.00
22261;BME280;11299;43.202;27.920;2022-09-30T10:52:31;101067.03;;;27.67;100.00
22261;BME280;11299;43.202;27.920;2022-09-30T10:55:25;101057.38;;;27.83;100.00
22261;BME280;11299;43.202;27.920;2022-09-30T10:58:24;101060.53;;;27.94;100.00
22261;BME280;11299;43.202;27.920;2022-09-30T11:00:58;101048.88;;;27.32;100.00
22261;BME280;11299;43.202;27.920;2022-09-30T11:03:53;100866.47;;;26.71;100.00
22261;BME280;11299;43.202;27.920;2022-09-30T11:06:17;101069.66;;;28.15;100.00
22261;BME280;11299;43.202;27.920;2022-09-30T11:09:11;101063.28;;;28.34;100.00
22261;BME280;11299;43.202;27.920;2022-09-30T11:11:43;101061.25;;;27.91;100.00
22261;BME280;11299;43.202;27.920;2022-09-30T11:16:58;101062.81;;;28.32;100.00
22261;BME280;11299;43.202;27.920;2022-09-30T11:22:27;100949.94;;;28.51;100.00
22261;BME280;11299;43.202;27.920;2022-09-30T11:24:55;100911.34;;;28.04;100.00
22261;BME280;11299;43.202;27.920;2022-09-30T11:49:43;101072.03;;;29.53;100.00
22261;BME280;11299;43.202;27.920;2022-09-30T12:00:23;101022.63;;;30.45;92.74
22261;BME280;11299;43.202;27.920;2022-09-30T12:02:58;101073.19;;;30.90;87.60
22261;BME280;11299;43.202;27.920;2022-09-30T12:05:45;101009.81;;;30.58;87.00
22261;BME280;11299;43.202;27.920;2022-09-30T12:08:16;100942.81;;;30.52;82.71
22261;BME280;11299;43.202;27.920;2022-09-30T12:10:53;101072.16;;;31.54;77.64
22261;BME280;11299;43.202;27.920;2022-09-30T12:13:23;100941.03;;;30.93;74.63
22261;BME280;11299;43.202;27.920;2022-09-30T12:15:50;101074.66;;;31.85;72.21
22261;BME280;11299;43.202;27.920;2022-09-30T12:18:24;101071.06;;;31.91;71.86
22261;BME280;11299;43.202;27.920;2022-09-30T12:20:55;100981.47;;;31.51;70.95
22261;BME280;11299;43.202;27.920;2022-09-30T12:23:29;101080.22;;;31.44;76.26
22261;BME280;11299;43.202;27.920;2022-09-30T12:26:02;101115.03;;;31.27;82.89
22261;BME280;11299;43.202;27.920;2022-09-30T12:28:33;101044.16;;;31.10;84.04
22261;BME280;11299;43.202;27.920;2022-09-30T12:32:04;101070.53;;;31.26;83.17
22261;BME280;11299;43.202;27.920;2022-09-30T12:34:16;101057.28;;;30.89;83.71
22261;BME280;11299;43.202;27.920;2022-09-30T12:36:59;101076.22;;;31.00;86.50
22261;BME280;11299;43.202;27.920;2022-09-30T12:48:08;101044.34;;;30.11;94.21
22261;BME280;11299;43.202;27.920;2022-09-30T12:50:47;101068.47;;;30.14;93.84
22261;BME280;11299;43.202;27.920;2022-09-30T12:53:21;100971.91;;;29.55;93.43
22261;BME280;11299;43.202;27.920;2022-09-30T12:55:48;101050.00;;;29.89;94.71
22261;BME280;11299;43.202;27.920;2022-09-30T12:58:24;101103.53;;;30.14;94.78
22261;BME280;11299;43.202;27.920;2022-09-30T13:01:07;100944.91;;;29.49;94.23
22261;BME280;11299;43.202;27.920;2022-09-30T13:03:48;101055.91;;;30.37;94.53
22261;BME280;11299;43.202;27.920;2022-09-30T13:06:16;101023.88;;;30.06;92.97
22261;BME280;11299;43.202;27.920;2022-09-30T13:11:38;101069.06;;;30.04;96.05
22261;BME280;11299;43.202;27.920;2022-09-30T13:14:30;101075.13;;;30.21;94.61
22261;BME280;11299;43.202;27.920;2022-09-30T13:19:39;101042.03;;;30.17;92.50
22261;BME280;11299;43.202;27.920;2022-09-30T13:27:49;101107.50;;;30.29;93.06
22261;BME280;11299;43.202;27.920;2022-09-30T13:32:42;101006.78;;;29.48;94.64
22261;BME280;11299;43.202;27.920;2022-09-30T13:46:24;101088.16;;;29.81;97.25
22261;BME280;11299;43.202;27.920;2022-09-30T13:48:57;100941.75;;;28.81;98.65
22261;BME280;11299;43.202;27.920;2022-09-30T13:51:27;101080.81;;;29.64;99.42
22261;BME280;11299;43.202;27.920;2022-09-30T13:53:57;101073.28;;;29.72;100.00
22261;BME280;11299;43.202;27.920;2022-09-30T13:56:27;101109.97;;;30.11;98.75
22261;BME280;11299;43.202;27.920;2022-09-30T14:05:25;101114.56;;;30.99;95.01
22261;BME280;11299;43.202;27.920;2022-09-30T14:18:50;101143.84;;;33.98;79.79
22261;BME280;11299;43.202;27.920;2022-09-30T14:31:46;101096.84;;;34.38;73.74
22261;BME280;11299;43.202;27.920;2022-09-30T14:34:14;101163.78;;;34.49;72.71
22261;BME280;11299;43.202;27.920;2022-09-30T14:36:42;101128.44;;;34.45;72.79
22261;BME280;11299;43.202;27.920;2022-09-30T14:39:17;100990.91;;;33.98;71.20
22261;BME280;11299;43.202;27.920;2022-09-30T14:41:50;101094.84;;;34.56;70.87
22261;BME280;11299;43.202;27.920;2022-09-30T14:44:17;100997.00;;;33.86;70.96
22261;BME280;11299;43.202;27.920;2022-09-30T14:46:45;101111.28;;;34.59;70.27
22261;BME280;11299;43.202;27.920;2022-09-30T14:49:15;101112.91;;;34.53;70.25
22261;BME280;11299;43.202;27.920;2022-09-30T14:51:44;101005.91;;;33.63;70.94
22261;BME280;11299;43.202;27.920;2022-09-30T14:54:23;101099.09;;;33.94;71.38
22261;BME280;11299;43.202;27.920;2022-09-30T14:56:51;101111.66;;;33.65;73.25
22261;BME280;11299;43.202;27.920;2022-09-30T14:59:21;101119.75;;;33.49;74.54
22261;BME280;11299;43.202;27.920;2022-09-30T15:02:00;101104.44;;;33.31;75.08
22261;BME280;11299;43.202;27.920;2022-09-30T15:04:34;101103.66;;;32.90;75.67
22261;BME280;11299;43.202;27.920;2022-09-30T15:07:03;101106.75;;;32.71;77.80
22261;BME280;11299;43.202;27.920;2022-09-30T15:09:34;101101.91;;;32.38;79.19
22261;BME280;11299;43.202;27.920;2022-09-30T15:12:26;101124.63;;;31.91;82.14
22261;BME280;11299;43.202;27.920;2022-09-30T15:14:58;101125.38;;;31.35;84.67
22261;BME280;11299;43.202;27.920;2022-09-30T15:17:29;100950.34;;;29.73;87.93
22261;BME280;11299;43.202;27.920;2022-09-30T15:19:59;101121.16;;;30.20;91.87
22261;BME280;11299;43.202;27.920;2022-09-30T15:22:26;101023.13;;;28.82;96.73
22261;BME280;11299;43.202;27.920;2022-09-30T15:24:53;101125.78;;;29.20;100.00
22261;BME280;11299;43.202;27.920;2022-09-30T15:27:23;101127.34;;;28.71;100.00
22261;BME280;11299;43.202;27.920;2022-09-30T15:29:54;101156.78;;;28.08;100.00
22261;BME280;11299;43.202;27.920;2022-09-30T15:32:22;101134.13;;;27.83;100.00
22261;BME280;11299;43.202;27.920;2022-09-30T15:34:48;101024.88;;;27.05;100.00
22261;BME280;11299;43.202;27.920;2022-09-30T15:37:20;101008.19;;;26.67;100.00
22261;BME280;11299;43.202;27.920;2022-09-30T15:39:47;101157.28;;;27.34;100.00
22261;BME280;11299;43.202;27.920;2022-09-30T15:42:42;101157.72;;;27.12;100.00
22261;BME280;11299;43.202;27.920;2022-09-30T15:45:34;101160.44;;;27.08;100.00
22261;BME280;11299;43.202;27.920;2022-09-30T15:50:50;101152.97;;;26.47;100.00
22261;BME280;11299;43.202;27.920;2022-09-30T15:55:54;101184.03;;;26.43;100.00
22261;BME280;11299;43.202;27.920;2022-09-30T15:58:38;101160.66;;;26.14;100.00
22261;BME280;11299;43.202;27.920;2022-09-30T16:01:17;101061.22;;;25.36;100.00
22261;BME280;11299;43.202;27.920;2022-09-30T16:08:56;101211.47;;;25.69;100.00
22261;BME280;11299;43.202;27.920;2022-09-30T16:11:34;101205.75;;;25.57;100.00
22261;BME280;11299;43.202;27.920;2022-09-30T16:14:03;101209.44;;;25.49;100.00
22261;BME280;11299;43.202;27.920;2022-09-30T16:16:32;101200.47;;;25.38;100.00
22261;BME280;11299;43.202;27.920;2022-09-30T16:18:59;101133.81;;;24.82;100.00
22261;BME280;11299;43.202;27.920;2022-09-30T16:21:37;101206.59;;;25.11;100.00
22261;BME280;11299;43.202;27.920;2022-09-30T16:27:19;101236.75;;;25.07;100.00
22261;BME280;11299;43.202;27.920;2022-09-30T16:29:45;101195.72;;;24.67;100.00
22261;BME280;11299;43.202;27.920;2022-09-30T16:32:11;101225.19;;;24.83;100.00
22261;BME280;11299;43.202;27.920;2022-09-30T16:34:39;101241.28;;;24.91;100.00
22261;BME280;11299;43.202;27.920;2022-09-30T16:37:12;101142.59;;;24.17;100.00
22261;BME280;11299;43.202;27.920;2022-09-30T16:39:39;101259.78;;;24.80;100.00